Aérodrome :
LOGIN :

S'inscrire | Disclaimer

   EN    FR    IT 

 










Légende :    VFR   VFR Marginal   IFR   IFR Intensif   IFR Très Intensif
Visi : 
Plafond : 
>= 8 km
>= 3000ft
5 à 8 km
1000 à 3000 ft
1500m à 5 km
500 à 1000 ft
800 à 1500m
200 à 500 ft
< 800m
< 200 ft
Symboles :   Orages  Brouillard  Fortes neiges  Fortes précipitations  Vent > 20 kt
SIGMETs :   Divers  Orages  Givrage  Turbulence  Onde Orograph.  Cendres Volcan.







- Altitude de l'aérodrome : 204 ft
- Code IATA : AGF
- Voir les cartes d'approche


LFBA - Agen

DERNIER METAR :
  • 170730Z AUTO VRB02KT 9999 SCT024 BKN032 OVC041 20/18 Q1021 TEMPO 1000 BR OVC010

METARs EXPIRÉS :
  • 170700Z AUTO VRB01KT 9999 SCT020 BKN034 OVC041 19/17 Q1021 TEMPO 1000 BR OVC010
  • 170630Z AUTO VRB01KT 9999 BKN021 OVC035 19/18 Q1021 TEMPO 1000 BR OVC010
  • 170600Z AUTO 00000KT 9999 BKN021 OVC054 18/18 Q1021 TEMPO 1000 BR OVC010
  • 170530Z AUTO 00000KT 9999 BKN021 BKN026 OVC034 18/17 Q1021 TEMPO 1000 BR OVC010
  • 170500Z AUTO 00000KT 9999 OVC021 17/17 Q1021

TAF TAF LFBA
Valide du 17 à 06h jusqu'au 17 à 15h UTC


170500Z 1706/1715 VRB03KT 9999 OVC020
PROB30
TEMPO 1706/1709 1000 BR OVC010
Pas de NOTAMs connus pour ce terrain.



MET'MAP, la Météo Aéronautique d'un coup d'oeil ! - Copyright ORBIFLY Décembre 2007 - Disclaimer

ORBIFLY MET'MAP TEAM :

Programmation & Développement : Alexandra Zaïnal
Conception & Développement : Baudouin d'Aumeries
Co-Programmation & Développement : Marc-Olivier Méhu
Soutien technique & logistique : Manuel Goepfert

Contact : metmap@orbifly.com




SOURCES & CREDITS :

   NOAA